Time;durP1;ratioP1;P1;durP2;ratioP2;P2;SDS_P1;SDS_P2;PMS_P1;PMS_P2;Temp;Humidity;BMP_temperature;BMP_pressure;BME280_temperature;BME280_humidity;BME280_pressure;Samples;Min_cycle;Max_cycle;Signal;HPM_P1;HPM_P2
2021/09/12 00:00:50;;;;;;;5.30;3.62;;;;;;;23.89;55.38;101163.13;144992;581;6002;-78
2021/09/12 00:03:17;;;;;;;4.18;3.78;;;;;;;23.89;55.30;101165.75;144992;571;6002;-78
2021/09/12 00:05:43;;;;;;;4.12;3.30;;;;;;;23.89;55.32;101165.75;144992;596;6002;-78
2021/09/12 00:08:10;;;;;;;3.58;3.28;;;;;;;23.88;55.22;101152.53;144992;578;6002;-79
2021/09/12 00:10:36;;;;;;;3.85;3.05;;;;;;;23.85;55.05;101153.47;144992;576;6002;-79
2021/09/12 00:13:03;;;;;;;4.87;3.47;;;;;;;23.82;55.67;101145.53;144992;622;6002;-78
2021/09/12 00:15:30;;;;;;;3.67;3.35;;;;;;;23.81;55.52;101150.84;144992;620;6002;-79
2021/09/12 00:17:56;;;;;;;4.65;3.60;;;;;;;23.80;55.66;101149.09;144992;591;6002;-79
2021/09/12 00:20:23;;;;;;;7.72;3.85;;;;;;;23.79;55.68;101153.53;144992;580;6002;-79
2021/09/12 00:22:49;;;;;;;5.35;3.78;;;;;;;23.76;55.21;101142.97;144992;569;6002;-77
2021/09/12 00:25:16;;;;;;;3.83;3.45;;;;;;;23.73;55.13;101143.03;144992;596;6002;-78
2021/09/12 00:27:42;;;;;;;4.93;3.60;;;;;;;23.75;55.12;101145.66;144992;599;6002;-79
2021/09/12 00:30:10;;;;;;;4.93;3.67;;;;;;;23.74;55.44;101152.75;144992;605;6002;-77
2021/09/12 00:32:36;;;;;;;4.43;3.55;;;;;;;23.75;55.53;101149.22;144992;594;6002;-78
2021/09/12 00:35:04;;;;;;;3.95;3.55;;;;;;;23.75;55.64;101143.91;144992;564;6002;-78
2021/09/12 00:37:31;;;;;;;6.18;3.15;;;;;;;23.75;55.59;101149.22;144992;575;6002;-78
2021/09/12 00:39:57;;;;;;;4.03;3.20;;;;;;;23.75;55.40;101141.25;144992;628;6002;-79
2021/09/12 00:42:24;;;;;;;4.00;3.50;;;;;;;23.75;55.33;101143.00;144992;644;6002;-77
2021/09/12 00:44:50;;;;;;;4.78;3.62;;;;;;;23.73;55.00;101143.94;144992;653;6002;-79
2021/09/12 00:47:16;;;;;;;3.45;3.15;;;;;;;23.73;55.02;101145.69;144992;610;6002;-77
2021/09/12 00:49:43;;;;;;;4.60;3.40;;;;;;;23.71;55.61;101145.72;144992;570;6002;-78
2021/09/12 00:52:15;;;;;;;3.80;3.40;;;;;;;23.71;54.99;101145.72;144992;632;6002;-79
2021/09/12 00:54:44;;;;;;;5.90;3.40;;;;;;;23.72;54.95;101146.63;144992;569;6002;-77
2021/09/12 00:57:12;;;;;;;4.22;3.30;;;;;;;23.70;55.39;101137.78;144992;607;6002;-79
2021/09/12 00:59:41;;;;;;;4.22;3.28;;;;;;;23.71;55.10;101139.56;144992;572;6002;-76
2021/09/12 01:02:09;;;;;;;3.87;3.53;;;;;;;23.70;54.96;101138.69;144992;572;6002;-78
2021/09/12 01:04:36;;;;;;;5.00;3.40;;;;;;;23.71;55.03;101142.19;144992;579;6002;-79
2021/09/12 01:07:05;;;;;;;3.40;3.10;;;;;;;23.71;55.24;101140.41;144992;612;6002;-79
2021/09/12 01:09:34;;;;;;;3.70;3.22;;;;;;;23.70;54.89;101136.03;144992;611;6002;-79
2021/09/12 01:12:01;;;;;;;4.25;3.50;;;;;;;23.71;55.03;101131.59;144992;597;6002;-79
2021/09/12 01:14:30;;;;;;;3.62;3.33;;;;;;;23.71;55.37;101131.59;144992;588;6002;-81
2021/09/12 01:16:56;;;;;;;4.65;3.30;;;;;;;23.72;55.38;101130.72;144992;570;6002;-79
2021/09/12 01:19:23;;;;;;;3.67;3.37;;;;;;;23.70;55.26;101128.09;144992;567;6002;-79
2021/09/12 01:21:57;;;;;;;5.60;3.28;;;;;;;23.71;54.96;101129.81;144992;593;6002;-78
2021/09/12 01:24:27;;;;;;;3.65;3.35;;;;;;;23.71;55.35;101123.66;144992;590;6002;-79
2021/09/12 01:26:54;;;;;;;4.45;3.00;;;;;;;23.70;55.31;101125.44;144992;628;6002;-79
2021/09/12 01:29:21;;;;;;;5.62;3.28;;;;;;;23.70;55.22;101128.09;144992;565;6002;-78
2021/09/12 01:31:47;;;;;;;3.75;3.22;;;;;;;23.67;55.19;101132.53;144992;573;6002;-78
2021/09/12 01:34:14;;;;;;;4.55;3.40;;;;;;;23.64;54.94;101133.50;144992;572;6002;-77
2021/09/12 01:36:41;;;;;;;4.65;3.50;;;;;;;23.64;55.49;101133.50;144992;575;6002;-79
2021/09/12 01:39:08;;;;;;;4.05;3.67;;;;;;;23.66;55.56;101136.13;144992;585;6002;-78
2021/09/12 01:41:35;;;;;;;4.05;3.53;;;;;;;23.66;55.47;101134.31;144992;580;6002;-78
2021/09/12 01:44:03;;;;;;;5.72;3.92;;;;;;;23.59;55.85;101139.75;144992;565;6002;-77
2021/09/12 01:46:30;;;;;;;6.60;4.40;;;;;;;23.57;56.13;101139.78;144992;640;6002;-77
2021/09/12 01:49:00;;;;;;;7.50;5.05;;;;;;;23.60;55.63;101141.53;144992;578;6002;-78
2021/09/12 01:51:27;;;;;;;7.07;4.65;;;;;;;23.60;56.18;101139.72;144992;572;6002;-77
2021/09/12 01:53:53;;;;;;;4.90;4.40;;;;;;;23.61;56.12;101128.25;144992;575;6002;-79
2021/09/12 01:56:19;;;;;;;5.20;4.70;;;;;;;23.63;55.83;101126.44;144992;581;6002;-79
2021/09/12 01:58:46;;;;;;;6.47;4.72;;;;;;;23.64;56.07;101130.84;144991;564;6002;-78
2021/09/12 02:01:12;;;;;;;7.18;5.00;;;;;;;23.61;56.24;101135.34;144992;587;6002;-79
2021/09/12 02:03:39;;;;;;;7.80;5.53;;;;;;;23.59;56.42;101131.81;144992;575;6002;-77
2021/09/12 02:06:05;;;;;;;5.95;4.75;;;;;;;23.58;56.65;101130.94;144992;573;6002;-78
2021/09/12 02:08:32;;;;;;;6.22;4.00;;;;;;;23.60;56.35;101136.22;144991;569;6002;-78
2021/09/12 02:10:58;;;;;;;7.80;4.60;;;;;;;23.62;56.48;101137.91;144992;622;6002;-78
2021/09/12 02:13:25;;;;;;;6.00;4.10;;;;;;;23.64;56.44;101136.13;144992;656;6002;-78
2021/09/12 02:15:51;;;;;;;4.57;3.60;;;;;;;23.64;56.52;101136.13;144992;587;6002;-78
2021/09/12 02:18:17;;;;;;;4.20;3.62;;;;;;;23.66;56.46;101136.97;144992;564;6002;-78
2021/09/12 02:20:44;;;;;;;4.50;3.85;;;;;;;23.67;56.70;101132.53;144992;571;6002;-79
2021/09/12 02:23:10;;;;;;;5.12;3.70;;;;;;;23.67;56.43;101130.78;144992;580;6002;-79
2021/09/12 02:25:37;;;;;;;5.10;3.50;;;;;;;23.68;56.58;101129.00;144992;564;6002;-78
2021/09/12 02:28:04;;;;;;;5.25;3.72;;;;;;;23.67;56.41;101136.09;144992;594;6002;-78
2021/09/12 02:30:31;;;;;;;4.97;3.30;;;;;;;23.68;55.98;101135.16;144992;585;6002;-78
2021/09/12 02:32:57;;;;;;;4.03;3.50;;;;;;;23.68;55.91;101134.31;144992;569;6002;-78
2021/09/12 02:35:24;;;;;;;3.90;3.60;;;;;;;23.68;55.88;101132.50;144992;616;6002;-79
2021/09/12 02:37:50;;;;;;;3.50;3.20;;;;;;;23.68;56.29;101131.66;144992;577;6002;-78
2021/09/12 02:40:17;;;;;;;3.55;3.25;;;;;;;23.67;56.14;101136.09;144992;570;6002;-79
2021/09/12 02:42:43;;;;;;;3.78;3.47;;;;;;;23.67;55.85;101135.19;144992;610;6002;-78
2021/09/12 02:45:10;;;;;;;3.80;3.50;;;;;;;23.66;55.63;101122.88;144992;581;6002;-78
2021/09/12 02:47:37;;;;;;;3.70;3.37;;;;;;;23.65;56.06;101124.63;144992;665;6002;-79
2021/09/12 02:50:05;;;;;;;4.50;3.08;;;;;;;23.64;55.50;101120.25;144992;590;6002;-78
2021/09/12 02:52:35;;;;;;;4.18;3.62;;;;;;;23.64;55.49;101116.69;144992;572;6002;-77
2021/09/12 02:55:02;;;;;;;4.55;3.30;;;;;;;23.62;55.71;101116.72;144992;570;6002;-77
2021/09/12 02:57:29;;;;;;;3.75;3.45;;;;;;;23.60;55.53;101113.22;144992;610;6002;-77
2021/09/12 02:59:56;;;;;;;5.82;3.90;;;;;;;23.58;55.88;101109.75;144992;569;6002;-79
2021/09/12 03:02:23;;;;;;;6.53;4.80;;;;;;;23.56;55.99;101108.91;144992;623;6002;-79
2021/09/12 03:04:49;;;;;;;5.68;5.10;;;;;;;23.57;56.36;101104.47;144992;579;6002;-78
2021/09/12 03:07:15;;;;;;;7.07;4.95;;;;;;;23.57;56.52;101101.81;144992;569;6002;-79
2021/09/12 03:09:42;;;;;;;5.70;4.65;;;;;;;23.55;56.62;101101.84;144992;591;6003;-78
2021/09/12 03:12:08;;;;;;;5.78;4.15;;;;;;;23.54;56.29;101106.28;144992;606;6002;-79
2021/09/12 03:14:35;;;;;;;5.62;4.15;;;;;;;23.53;56.30;101099.22;144992;604;6002;-79
2021/09/12 03:17:01;;;;;;;5.53;3.67;;;;;;;23.55;56.84;101099.22;144992;621;6003;-77
2021/09/12 03:19:28;;;;;;;4.37;3.50;;;;;;;23.56;56.64;101103.62;144992;599;6002;-77
2021/09/12 03:21:54;;;;;;;4.47;3.67;;;;;;;23.55;56.43;101096.56;144992;648;6002;-78
2021/09/12 03:24:21;;;;;;;4.55;3.53;;;;;;;23.53;56.64;101095.72;144992;583;6002;-79
2021/09/12 03:26:47;;;;;;;6.47;3.80;;;;;;;23.53;56.25;101107.19;144992;565;6002;-79
2021/09/12 03:29:14;;;;;;;4.20;3.40;;;;;;;23.51;56.40;101100.16;144992;593;6002;-80
2021/09/12 03:31:40;;;;;;;6.05;3.60;;;;;;;23.50;56.50;101096.62;144992;578;6002;-80
2021/09/12 03:34:06;;;;;;;4.62;3.62;;;;;;;23.50;56.40;101104.59;144992;658;6002;-78
2021/09/12 03:36:33;;;;;;;4.22;3.40;;;;;;;23.49;55.89;101109.91;144992;589;6002;-78
2021/09/12 03:38:59;;;;;;;4.45;3.53;;;;;;;23.48;56.49;101102.84;144992;582;6002;-78
2021/09/12 03:41:26;;;;;;;4.55;3.85;;;;;;;23.46;56.47;101102.00;144992;569;6002;-80
2021/09/12 03:43:52;;;;;;;5.18;3.65;;;;;;;23.46;55.94;101112.59;144992;563;6002;-78
2021/09/12 03:46:19;;;;;;;4.30;3.90;;;;;;;23.47;56.02;101117.03;144992;679;6002;-76
2021/09/12 03:48:45;;;;;;;5.70;4.07;;;;;;;23.44;56.14;101115.28;144992;575;6002;-78
2021/09/12 03:51:11;;;;;;;5.82;4.50;;;;;;;23.45;56.51;101110.84;144992;615;6002;-78
2021/09/12 03:53:38;;;;;;;5.80;4.60;;;;;;;23.46;56.30;101110.81;144992;610;6002;-78
2021/09/12 03:56:05;;;;;;;5.07;4.30;;;;;;;23.48;56.23;101116.09;144992;589;6002;-77
2021/09/12 03:58:31;;;;;;;5.43;4.12;;;;;;;23.46;56.51;101109.97;144993;594;6002;-78
2021/09/12 04:00:58;;;;;;;6.03;4.37;;;;;;;23.45;56.31;101110.84;144993;590;6002;-77
2021/09/12 04:03:24;;;;;;;7.00;4.37;;;;;;;23.46;56.44;101109.97;144993;583;6002;-78
2021/09/12 04:05:50;;;;;;;5.32;4.35;;;;;;;23.46;56.41;101109.97;144993;564;6002;-78
2021/09/12 04:08:17;;;;;;;5.20;4.37;;;;;;;23.46;56.89;101118.78;144993;598;6002;-79
2021/09/12 04:10:43;;;;;;;7.93;5.22;;;;;;;23.46;57.09;101121.41;144993;583;6002;-79
2021/09/12 04:13:10;;;;;;;7.22;4.97;;;;;;;23.47;56.81;101122.31;144993;566;6002;-78
2021/09/12 04:15:36;;;;;;;7.57;5.07;;;;;;;23.47;57.05;101114.38;144993;568;6002;-79
2021/09/12 04:18:03;;;;;;;12.02;5.37;;;;;;;23.47;57.01;101114.38;144993;585;6002;-79
2021/09/12 04:20:29;;;;;;;20.80;5.55;;;;;;;23.47;56.75;101119.66;144993;619;6002;-78
2021/09/12 04:22:55;;;;;;;8.75;5.00;;;;;;;23.46;57.06;101124.06;144993;642;6002;-79
2021/09/12 04:25:22;;;;;;;7.03;5.30;;;;;;;23.45;56.91;101127.63;144993;566;6002;-78
2021/09/12 04:27:48;;;;;;;8.90;4.93;;;;;;;23.45;57.19;101132.94;144992;657;6002;-79
2021/09/12 04:30:15;;;;;;;8.25;5.20;;;;;;;23.46;57.02;101128.50;144992;575;6002;-78
2021/09/12 04:32:42;;;;;;;7.72;5.07;;;;;;;23.45;56.97;101126.75;144992;578;6002;-78
2021/09/12 04:35:09;;;;;;;6.32;4.45;;;;;;;23.44;56.99;101131.19;144992;575;6002;-79
2021/09/12 04:37:35;;;;;;;7.45;5.03;;;;;;;23.43;57.49;101128.56;144992;657;6002;-78
2021/09/12 04:40:02;;;;;;;5.43;4.93;;;;;;;23.46;57.19;101136.44;144992;591;6002;-79
2021/09/12 04:42:28;;;;;;;5.97;4.32;;;;;;;23.45;57.32;101132.94;144993;620;6002;-79
2021/09/12 04:45:00;;;;;;;5.45;3.83;;;;;;;23.45;57.12;101125.00;144993;620;6002;-78
2021/09/12 04:47:49;;;;;;;6.00;3.85;;;;;;;23.51;56.86;101134.59;144993;610;6002;-76
2021/09/12 04:50:22;;;;;;;5.47;3.72;;;;;;;23.59;57.25;101129.16;144993;657;6002;-77
2021/09/12 04:52:49;;;;;;;6.15;3.83;;;;;;;23.65;56.71;101129.06;144993;582;6002;-79
2021/09/12 04:55:15;;;;;;;4.40;3.60;;;;;;;23.67;56.52;101130.78;144992;579;6002;-79
2021/09/12 04:57:44;;;;;;;5.28;3.60;;;;;;;23.68;56.21;101124.56;144993;602;6002;-79
2021/09/12 05:00:11;;;;;;;5.60;3.65;;;;;;;23.67;56.14;101127.25;144993;601;6002;-77
2021/09/12 05:02:37;;;;;;;4.32;3.90;;;;;;;23.65;55.75;101129.91;144993;582;6002;-78
2021/09/12 05:05:04;;;;;;;5.20;3.60;;;;;;;23.63;55.52;101128.22;144993;570;6002;-79
2021/09/12 05:07:31;;;;;;;5.87;4.05;;;;;;;23.61;55.87;101127.38;144993;569;6002;-79
2021/09/12 05:09:57;;;;;;;7.00;3.70;;;;;;;23.60;55.92;101126.50;144993;597;6002;-79
2021/09/12 05:12:24;;;;;;;6.70;4.50;;;;;;;23.59;55.22;101138.00;144993;613;6002;-79
2021/09/12 05:14:51;;;;;;;5.43;4.12;;;;;;;23.59;55.56;101142.41;144993;574;6002;-77
2021/09/12 05:17:17;;;;;;;7.32;4.25;;;;;;;23.59;55.88;101139.75;144993;584;6002;-79
2021/09/12 05:19:43;;;;;;;6.50;4.40;;;;;;;23.58;55.51;101145.97;144993;591;6002;-77
2021/09/12 05:22:10;;;;;;;5.25;4.20;;;;;;;23.58;55.62;101144.19;144993;569;6002;-77
2021/09/12 05:24:36;;;;;;;7.22;5.00;;;;;;;23.58;55.40;101151.28;144993;611;6002;-79
2021/09/12 05:27:03;;;;;;;8.35;4.68;;;;;;;23.58;55.65;101154.78;144993;566;6002;-78
2021/09/12 05:29:30;;;;;;;9.20;4.70;;;;;;;23.58;55.72;101144.19;144993;589;6002;-78
2021/09/12 05:31:56;;;;;;;7.72;4.72;;;;;;;23.58;55.87;101159.22;144993;599;6002;-78
2021/09/12 05:34:23;;;;;;;4.95;4.45;;;;;;;23.59;55.74;101155.66;144993;617;6002;-79
2021/09/12 05:36:50;;;;;;;4.75;3.58;;;;;;;23.60;56.10;101160.06;144994;576;5002;-80
2021/09/12 05:39:16;;;;;;;4.50;4.03;;;;;;;23.59;56.09;101150.38;144994;585;5002;-79
2021/09/12 05:41:43;;;;;;;7.10;4.20;;;;;;;23.60;55.51;101162.72;144994;590;5002;-79
2021/09/12 05:44:09;;;;;;;5.40;4.07;;;;;;;23.61;55.67;101153.88;144994;586;5002;-78
2021/09/12 05:46:36;;;;;;;5.32;4.32;;;;;;;23.60;55.77;101157.41;144994;644;5002;-78
2021/09/12 05:49:04;;;;;;;4.87;3.90;;;;;;;23.59;55.27;101151.25;144994;586;5002;-80
2021/09/12 05:51:31;;;;;;;7.28;3.70;;;;;;;23.59;55.32;101158.31;144994;605;5002;-79
2021/09/12 05:53:57;;;;;;;11.20;5.05;;;;;;;23.58;55.75;101149.50;144994;592;5002;-79
2021/09/12 05:56:23;;;;;;;4.55;4.03;;;;;;;23.59;55.26;101151.25;144994;565;5002;-77
2021/09/12 05:58:50;;;;;;;7.40;4.50;;;;;;;23.59;55.64;101156.56;144994;578;5002;-77
2021/09/12 06:01:16;;;;;;;5.90;3.75;;;;;;;23.57;55.24;101152.16;144994;607;5002;-76
2021/09/12 06:03:43;;;;;;;6.05;4.10;;;;;;;23.56;55.25;101151.31;144994;616;5002;-78
2021/09/12 06:06:09;;;;;;;5.12;3.92;;;;;;;23.58;55.69;101149.50;144994;624;5002;-79
2021/09/12 06:08:36;;;;;;;4.22;3.83;;;;;;;23.59;55.35;101151.25;144994;577;5003;-79
2021/09/12 06:11:02;;;;;;;4.07;3.70;;;;;;;23.62;55.44;101156.47;144994;588;5002;-78
2021/09/12 06:13:29;;;;;;;4.40;4.00;;;;;;;23.64;55.33;101149.41;144994;632;5002;-79
2021/09/12 06:15:55;;;;;;;5.43;4.10;;;;;;;23.66;55.36;101150.22;144994;628;5002;-79
2021/09/12 06:18:22;;;;;;;6.25;3.92;;;;;;;23.69;55.59;101151.97;144994;607;5002;-79
2021/09/12 06:20:48;;;;;;;5.22;4.07;;;;;;;23.73;54.96;101151.87;144994;564;5002;-78
2021/09/12 06:23:15;;;;;;;6.25;3.58;;;;;;;23.81;55.30;101148.19;144994;588;5002;-80
2021/09/12 06:25:41;;;;;;;5.10;4.60;;;;;;;23.85;54.97;101153.47;144994;609;5002;-78
2021/09/12 06:28:07;;;;;;;5.32;4.15;;;;;;;23.89;55.06;101149.84;144994;618;5002;-78
2021/09/12 06:30:34;;;;;;;7.60;4.47;;;;;;;23.95;55.29;101145.34;144994;579;5002;-77
2021/09/12 06:33:00;;;;;;;5.90;4.95;;;;;;;24.00;55.29;101146.13;144994;581;5002;-78
2021/09/12 06:35:26;;;;;;;6.30;4.50;;;;;;;24.04;55.07;101151.34;144994;563;5002;-77
2021/09/12 06:37:53;;;;;;;6.03;4.40;;;;;;;24.08;54.86;101149.47;144994;573;5002;-80
2021/09/12 06:40:19;;;;;;;5.93;4.80;;;;;;;24.11;55.05;101153.88;144994;583;5002;-77
2021/09/12 06:42:46;;;;;;;9.93;5.03;;;;;;;24.11;54.73;101154.72;144994;581;5002;-79
2021/09/12 06:45:12;;;;;;;6.53;4.32;;;;;;;24.11;54.28;101154.72;144994;590;5003;-78
2021/09/12 06:47:39;;;;;;;9.98;4.57;;;;;;;24.04;54.29;101153.97;144994;570;5002;-78
2021/09/12 06:50:06;;;;;;;6.43;4.53;;;;;;;24.01;54.48;101153.19;144994;565;5002;-79
2021/09/12 06:52:33;;;;;;;4.55;4.05;;;;;;;24.01;54.80;101161.12;144994;573;5003;-77
2021/09/12 06:54:59;;;;;;;7.03;4.45;;;;;;;24.04;54.73;101161.06;144994;608;5002;-79
2021/09/12 06:57:26;;;;;;;6.20;4.18;;;;;;;24.00;54.26;101160.22;144994;617;5002;-79
2021/09/12 06:59:52;;;;;;;5.47;4.40;;;;;;;24.00;54.57;101162.87;144994;602;5002;-79
2021/09/12 07:02:18;;;;;;;4.75;4.10;;;;;;;24.03;54.75;101167.28;144994;563;5002;-80
2021/09/12 07:04:45;;;;;;;5.93;3.95;;;;;;;24.08;54.36;101161.00;144994;632;5002;-78
2021/09/12 07:07:11;;;;;;;4.40;4.00;;;;;;;24.18;54.42;101174.94;144994;578;5002;-78
2021/09/12 07:09:38;;;;;;;4.78;3.90;;;;;;;24.24;54.75;101164.22;144994;580;5002;-79
2021/09/12 07:12:05;;;;;;;5.28;3.80;;;;;;;24.33;54.33;101168.44;144994;579;5002;-78
2021/09/12 07:14:31;;;;;;;4.82;3.97;;;;;;;24.50;54.62;101162.78;144994;678;5002;-78
2021/09/12 07:16:58;;;;;;;7.57;3.80;;;;;;;24.68;54.22;101158.03;144994;622;5002;-79
2021/09/12 07:19:24;;;;;;;4.40;3.92;;;;;;;24.87;54.01;101155.84;144994;591;5002;-79
2021/09/12 07:21:52;;;;;;;5.15;3.70;;;;;;;25.01;54.22;101160.81;144994;557;5002;-77
2021/09/12 07:24:18;;;;;;;4.47;3.90;;;;;;;25.13;53.72;101149.91;144994;564;5002;-78
2021/09/12 07:26:45;;;;;;;4.55;4.15;;;;;;;25.22;53.91;101151.47;144994;597;5002;-77
2021/09/12 07:29:11;;;;;;;5.43;3.80;;;;;;;25.29;53.60;101148.66;144994;854;5003;-79
2021/09/12 07:31:38;;;;;;;4.62;4.10;;;;;;;25.37;53.47;101150.25;144993;663;5002;-78
2021/09/12 07:34:04;;;;;;;5.15;3.80;;;;;;;25.45;53.36;101153.59;144994;805;5002;-79
2021/09/12 07:36:31;;;;;;;4.07;3.47;;;;;;;25.49;52.97;101147.28;144994;908;5002;-78
2021/09/12 07:38:57;;;;;;;7.18;3.83;;;;;;;25.43;49.23;101143.00;144994;912;5002;-78
2021/09/12 07:41:24;;;;;;;5.32;3.33;;;;;;;25.33;53.40;101147.66;144994;884;5002;-80
2021/09/12 07:43:50;;;;;;;4.18;3.12;;;;;;;25.33;53.55;101150.31;144994;569;5018;-78
2021/09/12 07:46:17;;;;;;;3.72;3.33;;;;;;;25.37;53.05;101160.88;144994;666;5002;-78
2021/09/12 07:48:43;;;;;;;3.67;3.30;;;;;;;25.41;53.01;101146.63;144994;768;5002;-78
2021/09/12 07:51:10;;;;;;;3.58;3.28;;;;;;;25.46;52.71;101150.88;144993;582;5002;-77
2021/09/12 07:53:36;;;;;;;3.87;3.40;;;;;;;25.51;52.85;101154.28;144994;713;5002;-78
2021/09/12 07:56:03;;;;;;;3.83;3.20;;;;;;;25.55;52.72;101149.78;144994;889;5002;-78
2021/09/12 07:58:29;;;;;;;5.40;3.67;;;;;;;25.58;52.55;101144.41;144994;652;5002;-78
2021/09/12 08:00:56;;;;;;;6.55;3.70;;;;;;;25.60;52.38;101150.53;144994;629;5002;-78
2021/09/12 08:03:22;;;;;;;7.25;4.22;;;;;;;25.61;52.37;101143.44;144994;910;5002;-79
2021/09/12 08:05:49;;;;;;;7.00;4.62;;;;;;;25.56;52.19;101148.87;144994;894;5002;-78
2021/09/12 08:08:15;;;;;;;8.55;4.30;;;;;;;25.45;52.33;101149.16;144994;776;5002;-80
2021/09/12 08:10:41;;;;;;;4.85;3.70;;;;;;;25.37;51.77;101145.78;144994;700;5002;-79
2021/09/12 08:13:09;;;;;;;5.37;3.95;;;;;;;25.24;52.27;101141.69;144994;910;5002;-79
2021/09/12 08:15:36;;;;;;;6.35;4.32;;;;;;;25.20;51.67;101143.53;144994;557;5002;-79
2021/09/12 08:18:02;;;;;;;6.10;4.25;;;;;;;25.16;52.10;101149.84;144994;895;5002;-78
2021/09/12 08:20:29;;;;;;;5.60;4.50;;;;;;;25.08;52.22;101149.16;144994;880;5002;-76
2021/09/12 08:22:55;;;;;;;6.70;5.15;;;;;;;25.05;52.94;101144.78;144994;857;5002;-78
2021/09/12 08:25:22;;;;;;;9.13;4.93;;;;;;;25.07;52.56;101147.38;144993;580;5002;-79
2021/09/12 08:27:48;;;;;;;6.57;4.43;;;;;;;24.99;52.98;101145.81;144994;910;5002;-77
2021/09/12 08:30:14;;;;;;;5.07;4.55;;;;;;;24.93;53.43;101151.25;144994;618;5002;-78
2021/09/12 08:32:41;;;;;;;10.07;4.80;;;;;;;24.94;53.75;101150.34;144994;583;5002;-79
2021/09/12 08:35:09;;;;;;;5.25;4.30;;;;;;;24.99;53.56;101155.53;144994;910;5002;-80
2021/09/12 08:37:35;;;;;;;6.62;4.40;;;;;;;24.88;53.52;101153.16;144994;566;5002;-80
2021/09/12 08:40:05;;;;;;;6.15;4.55;;;;;;;24.85;53.85;101152.31;144993;786;5002;-77
2021/09/12 08:42:32;;;;;;;6.45;4.95;;;;;;;24.83;53.76;101154.16;144994;585;5002;-79
2021/09/12 08:44:59;;;;;;;5.65;4.50;;;;;;;24.83;54.91;101151.50;144994;572;5002;-77
2021/09/12 08:47:26;;;;;;;6.47;4.95;;;;;;;24.87;53.93;101151.41;144994;626;5002;-77
2021/09/12 08:49:53;;;;;;;7.60;4.72;;;;;;;24.96;53.79;101151.19;144994;571;5002;-78
2021/09/12 08:52:19;;;;;;;7.18;4.50;;;;;;;24.90;54.30;101156.63;144994;629;5002;-77
2021/09/12 08:54:46;;;;;;;4.75;4.25;;;;;;;24.83;53.88;101151.50;144994;911;5002;-78
2021/09/12 08:57:12;;;;;;;6.07;4.70;;;;;;;24.88;53.82;101152.25;144994;589;5002;-77
2021/09/12 08:59:39;;;;;;;4.40;4.00;;;;;;;24.95;54.03;101148.56;144994;720;5002;-78
2021/09/12 09:02:09;;;;;;;8.65;6.25;;;;;;;25.02;53.99;101149.28;144994;590;5002;-79
2021/09/12 09:04:36;;;;;;;22.75;16.58;;;;;;;24.99;53.58;101140.50;144994;596;5002;-78
2021/09/12 09:07:10;;;;;;;20.48;10.25;;;;;;;24.91;53.74;101145.13;144994;806;5002;-79
2021/09/12 09:09:56;;;;;;;14.23;10.70;;;;;;;24.95;54.20;101137.94;144994;586;5002;-79
2021/09/12 09:12:37;;;;;;;5.95;4.45;;;;;;;24.95;53.93;101137.94;144994;581;5004;-79
2021/09/12 09:15:15;;;;;;;13.57;11.18;;;;;;;25.04;53.72;101131.53;144994;895;5004;-79
2021/09/12 09:17:50;;;;;;;9.63;8.18;;;;;;;25.07;53.84;101131.44;144994;584;5004;-78
2021/09/12 09:20:27;;;;;;;9.13;6.37;;;;;;;25.07;53.35;101128.78;144994;636;5004;-79
2021/09/12 09:22:57;;;;;;;6.82;4.90;;;;;;;25.04;53.64;101136.84;144994;567;5004;-78
2021/09/12 09:25:29;;;;;;;7.62;4.62;;;;;;;25.07;53.95;101132.34;144994;567;5004;-79
2021/09/12 09:28:07;;;;;;;4.50;4.10;;;;;;;25.16;53.80;101131.22;144994;562;5004;-78
2021/09/12 09:31:08;;;;;;;4.37;3.97;;;;;;;25.13;52.49;101126.00;144994;571;5004;-78
2021/09/12 09:33:38;;;;;;;6.35;5.30;;;;;;;25.15;53.71;101125.06;144994;912;5002;-79
2021/09/12 09:36:06;;;;;;;5.80;4.85;;;;;;;25.23;53.71;101135.50;144994;912;5002;-77
2021/09/12 09:38:38;;;;;;;5.90;4.65;;;;;;;25.31;53.10;101125.59;144994;836;5002;-78
2021/09/12 09:41:10;;;;;;;5.75;4.43;;;;;;;25.22;53.68;101130.22;144994;768;5002;-76
2021/09/12 09:43:42;;;;;;;12.25;8.68;;;;;;;25.25;53.40;101125.69;144994;913;5003;-78
2021/09/12 09:46:43;;;;;;;7.82;7.03;;;;;;;25.28;53.16;101125.66;144994;597;5002;-79
2021/09/12 09:49:29;;;;;;;9.02;6.22;;;;;;;25.48;53.08;101132.25;144994;586;5004;-81
2021/09/12 09:52:01;;;;;;;12.63;10.40;;;;;;;25.40;52.99;101134.22;144994;567;5004;-77
2021/09/12 09:54:33;;;;;;;7.50;6.47;;;;;;;25.45;53.04;101124.34;144994;817;5004;-79
2021/09/12 09:57:00;;;;;;;5.03;4.53;;;;;;;25.27;53.37;101129.19;144993;632;5004;-78
2021/09/12 09:59:28;;;;;;;6.22;5.40;;;;;;;25.28;53.20;101130.12;144994;702;5002;-78
2021/09/12 10:01:55;;;;;;;7.22;5.10;;;;;;;25.35;53.63;101127.22;144994;566;5002;-78
2021/09/12 10:04:28;;;;;;;5.20;4.70;;;;;;;25.40;53.09;101127.12;144994;781;5002;-78
2021/09/12 10:06:56;;;;;;;7.07;4.72;;;;;;;25.49;53.30;101126.03;144994;566;5002;-79
2021/09/12 10:09:23;;;;;;;56.03;28.00;;;;;;;25.57;53.26;101126.69;144994;717;4567;-78
2021/09/12 10:12:00;;;;;;;6.37;5.12;;;;;;;25.57;52.83;101123.19;144993;840;4572;-77
2021/09/12 10:14:35;;;;;;;12.40;9.10;;;;;;;25.66;52.97;101129.13;144994;865;4572;-79
2021/09/12 10:17:04;;;;;;;6.25;5.28;;;;;;;25.71;53.14;101124.53;144992;910;6002;-78
2021/09/12 10:19:38;;;;;;;10.95;8.43;;;;;;;25.76;52.79;101126.22;144992;569;6002;-77
2021/09/12 10:22:13;;;;;;;6.82;5.87;;;;;;;25.86;52.27;101127.69;144992;911;6002;-79
2021/09/12 10:25:15;;;;;;;12.13;9.63;;;;;;;25.80;51.74;101130.53;144992;819;6002;-77
2021/09/12 10:27:46;;;;;;;5.78;4.30;;;;;;;25.78;52.25;101127.03;144992;913;6002;-78
2021/09/12 10:30:40;;;;;;;6.45;5.80;;;;;;;25.76;52.15;101128.87;144992;913;6002;-79
2021/09/12 10:33:27;;;;;;;11.07;9.95;;;;;;;25.66;50.95;101113.16;144992;749;6004;-79
2021/09/12 10:35:59;;;;;;;4.72;4.12;;;;;;;25.79;51.08;101112.84;144992;731;6002;-79
2021/09/12 10:38:37;;;;;;;5.90;4.15;;;;;;;25.79;51.16;101116.34;144992;913;6002;-78
2021/09/12 10:41:14;;;;;;;4.10;3.70;;;;;;;25.81;50.50;101116.31;144992;913;6002;-80
2021/09/12 10:43:51;;;;;;;8.70;4.62;;;;;;;25.78;50.56;101105.75;144992;872;6002;-80
2021/09/12 10:46:20;;;;;;;5.97;4.35;;;;;;;25.80;49.83;101110.12;144992;582;6002;-78
2021/09/12 10:49:06;;;;;;;4.62;4.03;;;;;;;25.92;50.09;101114.22;144992;616;6002;-78
2021/09/12 10:51:36;;;;;;;4.57;4.15;;;;;;;25.89;49.76;101106.34;144992;913;6002;-79
2021/09/12 10:54:02;;;;;;;6.78;5.10;;;;;;;25.89;47.14;101107.19;144992;703;6002;-80
2021/09/12 10:56:30;;;;;;;5.10;4.03;;;;;;;25.89;49.08;101115.19;144992;782;6002;-79
2021/09/12 10:59:10;;;;;;;5.35;3.72;;;;;;;25.94;48.45;101117.72;144992;913;6002;-78
2021/09/12 11:01:49;;;;;;;5.20;3.30;;;;;;;25.94;45.47;101114.19;144992;574;6002;-78
2021/09/12 11:04:27;;;;;;;6.22;3.92;;;;;;;25.95;44.45;101105.31;144992;681;6002;-80
2021/09/12 11:07:01;;;;;;;5.75;2.90;;;;;;;26.05;46.57;101093.50;144992;578;6002;-80
2021/09/12 11:09:28;;;;;;;4.55;3.15;;;;;;;26.14;45.68;101101.22;144992;816;6002;-80
2021/09/12 11:12:00;;;;;;;6.97;4.00;;;;;;;26.17;43.43;101102.91;144992;913;6002;-81
2021/09/12 11:14:28;;;;;;;5.28;3.30;;;;;;;26.29;44.89;101102.56;144992;569;6002;-78
2021/09/12 11:17:03;;;;;;;4.10;3.28;;;;;;;26.31;44.36;101091.88;144992;579;6002;-78
2021/09/12 11:19:29;;;;;;;4.60;2.90;;;;;;;26.29;41.92;101094.56;144992;590;6002;-79
2021/09/12 11:21:56;;;;;;;3.65;2.97;;;;;;;26.40;43.45;101092.47;144992;913;6002;-80
2021/09/12 11:24:27;;;;;;;3.35;2.80;;;;;;;26.42;42.97;101092.41;144992;649;6002;-78
2021/09/12 11:26:58;;;;;;;4.20;3.37;;;;;;;26.39;42.66;101090.72;144992;619;6002;-77
2021/09/12 11:29:51;;;;;;;6.07;3.40;;;;;;;26.36;43.45;101088.16;144992;775;6002;-79
2021/09/12 11:32:18;;;;;;;6.05;3.90;;;;;;;26.36;43.28;101090.81;144992;581;6004;-80
2021/09/12 11:34:49;;;;;;;5.75;3.37;;;;;;;26.33;43.50;101096.25;144992;700;6004;-77
2021/09/12 11:37:18;;;;;;;4.53;3.12;;;;;;;26.38;43.12;101088.13;144992;579;6004;-79